sensor_id;sensor_type;location;lat;lon;timestamp;temperature;humidity
13148;DHT22;6639;50.956;4.242;2022-10-16T00:01:38;20.20;99.90
13148;DHT22;6639;50.956;4.242;2022-10-16T00:04:05;20.30;99.90
13148;DHT22;6639;50.956;4.242;2022-10-16T00:06:32;19.80;99.90
13148;DHT22;6639;50.956;4.242;2022-10-16T00:09:01;19.80;99.90
13148;DHT22;6639;50.956;4.242;2022-10-16T00:11:29;19.70;99.90
13148;DHT22;6639;50.956;4.242;2022-10-16T00:13:58;19.90;99.90
13148;DHT22;6639;50.956;4.242;2022-10-16T00:16:25;19.80;99.90
13148;DHT22;6639;50.956;4.242;2022-10-16T00:18:52;19.70;99.90
13148;DHT22;6639;50.956;4.242;2022-10-16T00:21:21;19.90;99.90
13148;DHT22;6639;50.956;4.242;2022-10-16T00:23:50;19.70;99.90
13148;DHT22;6639;50.956;4.242;2022-10-16T00:26:19;19.60;99.90
13148;DHT22;6639;50.956;4.242;2022-10-16T00:28:46;19.50;99.90
13148;DHT22;6639;50.956;4.242;2022-10-16T00:31:13;19.30;99.90
13148;DHT22;6639;50.956;4.242;2022-10-16T00:33:40;19.50;99.90
13148;DHT22;6639;50.956;4.242;2022-10-16T00:36:09;19.60;99.90
13148;DHT22;6639;50.956;4.242;2022-10-16T00:38:37;19.20;99.90
13148;DHT22;6639;50.956;4.242;2022-10-16T00:41:05;19.30;99.90
13148;DHT22;6639;50.956;4.242;2022-10-16T00:43:39;19.40;99.90
13148;DHT22;6639;50.956;4.242;2022-10-16T00:46:13;19.40;99.90
13148;DHT22;6639;50.956;4.242;2022-10-16T00:48:42;19.30;99.90
13148;DHT22;6639;50.956;4.242;2022-10-16T00:51:09;19.50;99.90
13148;DHT22;6639;50.956;4.242;2022-10-16T00:53:36;19.60;99.90
13148;DHT22;6639;50.956;4.242;2022-10-16T00:56:04;19.50;99.90
13148;DHT22;6639;50.956;4.242;2022-10-16T00:58:31;19.60;99.90
13148;DHT22;6639;50.956;4.242;2022-10-16T01:00:59;19.40;99.90
13148;DHT22;6639;50.956;4.242;2022-10-16T01:03:28;19.20;99.90
13148;DHT22;6639;50.956;4.242;2022-10-16T01:06:05;19.40;99.90
13148;DHT22;6639;50.956;4.242;2022-10-16T01:08:42;19.50;99.90
13148;DHT22;6639;50.956;4.242;2022-10-16T01:11:15;19.60;99.90
13148;DHT22;6639;50.956;4.242;2022-10-16T01:13:48;19.70;99.90
13148;DHT22;6639;50.956;4.242;2022-10-16T01:16:24;19.80;99.90
13148;DHT22;6639;50.956;4.242;2022-10-16T01:18:58;19.70;99.90
13148;DHT22;6639;50.956;4.242;2022-10-16T01:21:28;19.30;99.90
13148;DHT22;6639;50.956;4.242;2022-10-16T01:24:01;19.30;99.90
13148;DHT22;6639;50.956;4.242;2022-10-16T01:26:42;19.40;99.90
13148;DHT22;6639;50.956;4.242;2022-10-16T01:29:18;19.60;99.90
13148;DHT22;6639;50.956;4.242;2022-10-16T01:31:49;19.60;99.90
13148;DHT22;6639;50.956;4.242;2022-10-16T01:34:20;19.10;99.90
13148;DHT22;6639;50.956;4.242;2022-10-16T01:36:52;19.10;99.90
13148;DHT22;6639;50.956;4.242;2022-10-16T01:39:22;19.20;99.90
13148;DHT22;6639;50.956;4.242;2022-10-16T01:41:56;19.50;99.90
13148;DHT22;6639;50.956;4.242;2022-10-16T01:44:29;19.20;99.90
13148;DHT22;6639;50.956;4.242;2022-10-16T01:46:57;18.90;99.90
13148;DHT22;6639;50.956;4.242;2022-10-16T01:49:29;19.20;99.90
13148;DHT22;6639;50.956;4.242;2022-10-16T01:51:59;19.10;99.90
13148;DHT22;6639;50.956;4.242;2022-10-16T01:54:28;19.10;99.90
13148;DHT22;6639;50.956;4.242;2022-10-16T01:56:58;18.80;99.90
13148;DHT22;6639;50.956;4.242;2022-10-16T01:59:28;18.90;99.90
13148;DHT22;6639;50.956;4.242;2022-10-16T02:02:00;19.20;99.90
13148;DHT22;6639;50.956;4.242;2022-10-16T02:04:33;19.10;99.90
13148;DHT22;6639;50.956;4.242;2022-10-16T02:07:01;19.30;99.90
13148;DHT22;6639;50.956;4.242;2022-10-16T02:09:27;19.50;99.90
13148;DHT22;6639;50.956;4.242;2022-10-16T02:11:57;19.90;99.90
13148;DHT22;6639;50.956;4.242;2022-10-16T02:14:29;19.70;99.90
13148;DHT22;6639;50.956;4.242;2022-10-16T02:16:56;19.70;99.90
13148;DHT22;6639;50.956;4.242;2022-10-16T02:19:23;19.60;99.90
13148;DHT22;6639;50.956;4.242;2022-10-16T02:21:54;19.20;99.90
13148;DHT22;6639;50.956;4.242;2022-10-16T02:24:26;19.00;99.90
13148;DHT22;6639;50.956;4.242;2022-10-16T02:27:00;18.90;99.90
13148;DHT22;6639;50.956;4.242;2022-10-16T02:29:33;18.90;99.90
13148;DHT22;6639;50.956;4.242;2022-10-16T02:32:04;18.90;99.90
13148;DHT22;6639;50.956;4.242;2022-10-16T02:34:33;18.90;99.90
13148;DHT22;6639;50.956;4.242;2022-10-16T02:37:01;18.80;99.90
13148;DHT22;6639;50.956;4.242;2022-10-16T02:39:30;19.10;99.90
13148;DHT22;6639;50.956;4.242;2022-10-16T02:41:57;19.00;99.90
13148;DHT22;6639;50.956;4.242;2022-10-16T02:44:24;18.70;99.90
13148;DHT22;6639;50.956;4.242;2022-10-16T02:46:52;19.00;99.90
13148;DHT22;6639;50.956;4.242;2022-10-16T02:49:19;19.10;99.90
13148;DHT22;6639;50.956;4.242;2022-10-16T02:51:46;19.20;99.90
13148;DHT22;6639;50.956;4.242;2022-10-16T02:54:13;18.80;99.90
13148;DHT22;6639;50.956;4.242;2022-10-16T02:56:39;19.00;99.90
13148;DHT22;6639;50.956;4.242;2022-10-16T02:59:06;18.70;99.90
13148;DHT22;6639;50.956;4.242;2022-10-16T03:01:34;19.20;99.90
13148;DHT22;6639;50.956;4.242;2022-10-16T03:04:02;19.20;99.90
13148;DHT22;6639;50.956;4.242;2022-10-16T03:06:29;19.40;99.90
13148;DHT22;6639;50.956;4.242;2022-10-16T03:08:55;19.70;99.90
13148;DHT22;6639;50.956;4.242;2022-10-16T03:11:22;19.50;99.90
13148;DHT22;6639;50.956;4.242;2022-10-16T03:13:49;19.50;99.90
13148;DHT22;6639;50.956;4.242;2022-10-16T03:16:16;19.20;99.90
13148;DHT22;6639;50.956;4.242;2022-10-16T03:18:43;19.30;99.90
13148;DHT22;6639;50.956;4.242;2022-10-16T03:21:11;19.10;99.90
13148;DHT22;6639;50.956;4.242;2022-10-16T03:23:38;19.20;99.90
13148;DHT22;6639;50.956;4.242;2022-10-16T03:26:05;19.10;99.90
13148;DHT22;6639;50.956;4.242;2022-10-16T03:28:32;19.20;99.90
13148;DHT22;6639;50.956;4.242;2022-10-16T03:30:58;19.30;99.90
13148;DHT22;6639;50.956;4.242;2022-10-16T03:33:25;19.30;99.90
13148;DHT22;6639;50.956;4.242;2022-10-16T03:35:53;18.90;99.90
13148;DHT22;6639;50.956;4.242;2022-10-16T03:38:21;18.90;99.90
13148;DHT22;6639;50.956;4.242;2022-10-16T03:40:48;19.00;99.90
13148;DHT22;6639;50.956;4.242;2022-10-16T03:43:15;18.90;99.90
13148;DHT22;6639;50.956;4.242;2022-10-16T03:45:42;19.00;99.90
13148;DHT22;6639;50.956;4.242;2022-10-16T03:48:09;19.10;99.90
13148;DHT22;6639;50.956;4.242;2022-10-16T03:50:36;19.20;99.90
13148;DHT22;6639;50.956;4.242;2022-10-16T03:53:03;19.30;99.90
13148;DHT22;6639;50.956;4.242;2022-10-16T03:55:32;19.60;99.90
13148;DHT22;6639;50.956;4.242;2022-10-16T03:57:58;19.80;99.90
13148;DHT22;6639;50.956;4.242;2022-10-16T04:00:25;19.60;99.90
13148;DHT22;6639;50.956;4.242;2022-10-16T04:02:52;19.70;99.90
13148;DHT22;6639;50.956;4.242;2022-10-16T04:05:19;19.80;99.90
13148;DHT22;6639;50.956;4.242;2022-10-16T04:07:46;19.80;99.90
13148;DHT22;6639;50.956;4.242;2022-10-16T04:10:13;19.90;99.90
13148;DHT22;6639;50.956;4.242;2022-10-16T04:12:41;20.20;99.90
13148;DHT22;6639;50.956;4.242;2022-10-16T04:15:08;20.20;99.90
13148;DHT22;6639;50.956;4.242;2022-10-16T04:17:35;20.10;99.90
13148;DHT22;6639;50.956;4.242;2022-10-16T04:20:03;20.10;99.90
13148;DHT22;6639;50.956;4.242;2022-10-16T04:22:30;20.10;99.90
13148;DHT22;6639;50.956;4.242;2022-10-16T04:24:56;19.90;99.90
13148;DHT22;6639;50.956;4.242;2022-10-16T04:27:23;19.80;99.90
13148;DHT22;6639;50.956;4.242;2022-10-16T04:29:51;19.50;99.90
13148;DHT22;6639;50.956;4.242;2022-10-16T04:32:18;19.50;99.90
13148;DHT22;6639;50.956;4.242;2022-10-16T04:34:45;19.20;99.90
13148;DHT22;6639;50.956;4.242;2022-10-16T04:37:12;19.10;99.90
13148;DHT22;6639;50.956;4.242;2022-10-16T04:39:39;19.10;99.90
13148;DHT22;6639;50.956;4.242;2022-10-16T04:42:05;19.20;99.90
13148;DHT22;6639;50.956;4.242;2022-10-16T04:44:32;19.00;99.90
13148;DHT22;6639;50.956;4.242;2022-10-16T04:47:00;19.30;99.90
13148;DHT22;6639;50.956;4.242;2022-10-16T04:49:27;19.30;99.90
13148;DHT22;6639;50.956;4.242;2022-10-16T04:51:54;19.10;99.90
13148;DHT22;6639;50.956;4.242;2022-10-16T04:54:21;19.20;99.90
13148;DHT22;6639;50.956;4.242;2022-10-16T04:56:48;19.20;99.90
13148;DHT22;6639;50.956;4.242;2022-10-16T04:59:16;19.30;99.90
13148;DHT22;6639;50.956;4.242;2022-10-16T05:01:43;19.30;99.90
13148;DHT22;6639;50.956;4.242;2022-10-16T05:04:12;19.40;99.90
13148;DHT22;6639;50.956;4.242;2022-10-16T05:06:40;19.20;99.90
13148;DHT22;6639;50.956;4.242;2022-10-16T05:09:08;19.30;99.90
13148;DHT22;6639;50.956;4.242;2022-10-16T05:11:35;19.20;99.90
13148;DHT22;6639;50.956;4.242;2022-10-16T05:14:02;19.10;99.90
13148;DHT22;6639;50.956;4.242;2022-10-16T05:16:29;19.10;99.90
13148;DHT22;6639;50.956;4.242;2022-10-16T05:18:56;19.10;99.90
13148;DHT22;6639;50.956;4.242;2022-10-16T05:21:24;19.00;99.90
13148;DHT22;6639;50.956;4.242;2022-10-16T05:23:53;19.10;99.90
13148;DHT22;6639;50.956;4.242;2022-10-16T05:26:20;19.00;99.90
13148;DHT22;6639;50.956;4.242;2022-10-16T05:28:47;18.90;99.90
13148;DHT22;6639;50.956;4.242;2022-10-16T05:31:15;19.00;99.90
13148;DHT22;6639;50.956;4.242;2022-10-16T05:33:42;18.80;99.90
13148;DHT22;6639;50.956;4.242;2022-10-16T05:36:10;19.10;99.90
13148;DHT22;6639;50.956;4.242;2022-10-16T05:38:38;19.30;99.90
13148;DHT22;6639;50.956;4.242;2022-10-16T05:41:05;18.90;99.90
13148;DHT22;6639;50.956;4.242;2022-10-16T05:43:32;19.20;99.90
13148;DHT22;6639;50.956;4.242;2022-10-16T05:46:01;19.10;99.90
13148;DHT22;6639;50.956;4.242;2022-10-16T05:48:28;19.20;99.90
13148;DHT22;6639;50.956;4.242;2022-10-16T05:50:59;19.30;99.90
13148;DHT22;6639;50.956;4.242;2022-10-16T05:53:27;18.90;99.90
13148;DHT22;6639;50.956;4.242;2022-10-16T05:55:55;18.70;99.90
13148;DHT22;6639;50.956;4.242;2022-10-16T05:58:23;18.60;99.90
13148;DHT22;6639;50.956;4.242;2022-10-16T06:00:54;18.50;99.90
13148;DHT22;6639;50.956;4.242;2022-10-16T06:03:21;18.70;99.90
13148;DHT22;6639;50.956;4.242;2022-10-16T06:05:48;18.70;99.90
13148;DHT22;6639;50.956;4.242;2022-10-16T06:08:15;18.60;99.90
13148;DHT22;6639;50.956;4.242;2022-10-16T06:10:42;18.60;99.90
13148;DHT22;6639;50.956;4.242;2022-10-16T06:13:10;18.20;99.90
13148;DHT22;6639;50.956;4.242;2022-10-16T06:15:37;18.50;99.90
13148;DHT22;6639;50.956;4.242;2022-10-16T06:18:07;18.80;99.90
13148;DHT22;6639;50.956;4.242;2022-10-16T06:20:34;19.00;99.90
13148;DHT22;6639;50.956;4.242;2022-10-16T06:23:01;19.10;99.90
13148;DHT22;6639;50.956;4.242;2022-10-16T06:25:29;18.50;99.90
13148;DHT22;6639;50.956;4.242;2022-10-16T06:27:56;18.50;99.90
13148;DHT22;6639;50.956;4.242;2022-10-16T06:30:24;18.60;99.90
13148;DHT22;6639;50.956;4.242;2022-10-16T06:32:51;18.70;99.90
13148;DHT22;6639;50.956;4.242;2022-10-16T06:35:18;18.60;99.90
13148;DHT22;6639;50.956;4.242;2022-10-16T06:37:45;18.70;99.90
13148;DHT22;6639;50.956;4.242;2022-10-16T06:40:11;18.60;99.90
13148;DHT22;6639;50.956;4.242;2022-10-16T06:42:40;18.60;99.90
13148;DHT22;6639;50.956;4.242;2022-10-16T06:45:07;18.80;99.90
13148;DHT22;6639;50.956;4.242;2022-10-16T06:47:36;18.80;99.90
13148;DHT22;6639;50.956;4.242;2022-10-16T06:50:03;18.90;99.90
13148;DHT22;6639;50.956;4.242;2022-10-16T06:52:32;18.70;99.90
13148;DHT22;6639;50.956;4.242;2022-10-16T06:54:58;18.80;99.90
13148;DHT22;6639;50.956;4.242;2022-10-16T06:57:25;19.10;99.90
13148;DHT22;6639;50.956;4.242;2022-10-16T06:59:52;19.20;99.90
13148;DHT22;6639;50.956;4.242;2022-10-16T07:02:19;19.70;99.90
13148;DHT22;6639;50.956;4.242;2022-10-16T07:04:47;20.00;99.90
13148;DHT22;6639;50.956;4.242;2022-10-16T07:07:14;20.10;99.90
13148;DHT22;6639;50.956;4.242;2022-10-16T07:09:41;20.20;99.90
13148;DHT22;6639;50.956;4.242;2022-10-16T07:12:08;20.30;99.90
13148;DHT22;6639;50.956;4.242;2022-10-16T07:14:35;20.30;99.90
13148;DHT22;6639;50.956;4.242;2022-10-16T07:17:02;20.40;99.90
13148;DHT22;6639;50.956;4.242;2022-10-16T07:19:29;20.80;99.90
13148;DHT22;6639;50.956;4.242;2022-10-16T07:21:57;21.10;99.90
13148;DHT22;6639;50.956;4.242;2022-10-16T07:24:24;21.30;99.90
13148;DHT22;6639;50.956;4.242;2022-10-16T07:26:51;21.40;99.90
13148;DHT22;6639;50.956;4.242;2022-10-16T07:29:20;21.20;99.90
13148;DHT22;6639;50.956;4.242;2022-10-16T07:31:47;21.60;99.90
13148;DHT22;6639;50.956;4.242;2022-10-16T07:34:16;21.50;99.90
13148;DHT22;6639;50.956;4.242;2022-10-16T07:36:43;21.80;99.90
13148;DHT22;6639;50.956;4.242;2022-10-16T07:39:12;21.90;99.90
13148;DHT22;6639;50.956;4.242;2022-10-16T07:41:39;21.80;99.90
13148;DHT22;6639;50.956;4.242;2022-10-16T07:44:06;21.90;99.90
13148;DHT22;6639;50.956;4.242;2022-10-16T07:46:33;22.10;99.90
13148;DHT22;6639;50.956;4.242;2022-10-16T07:49:01;22.10;99.90
13148;DHT22;6639;50.956;4.242;2022-10-16T07:51:28;22.20;99.90
13148;DHT22;6639;50.956;4.242;2022-10-16T07:53:55;22.30;99.90
13148;DHT22;6639;50.956;4.242;2022-10-16T07:56:23;22.40;99.90
13148;DHT22;6639;50.956;4.242;2022-10-16T07:58:51;23.10;99.90
13148;DHT22;6639;50.956;4.242;2022-10-16T08:01:18;23.50;99.90
13148;DHT22;6639;50.956;4.242;2022-10-16T08:03:47;23.50;99.90
13148;DHT22;6639;50.956;4.242;2022-10-16T08:06:14;23.60;99.90
13148;DHT22;6639;50.956;4.242;2022-10-16T08:08:41;23.50;99.90
13148;DHT22;6639;50.956;4.242;2022-10-16T08:11:08;23.90;99.90
13148;DHT22;6639;50.956;4.242;2022-10-16T08:13:36;24.20;99.90
13148;DHT22;6639;50.956;4.242;2022-10-16T08:16:04;23.80;99.90
13148;DHT22;6639;50.956;4.242;2022-10-16T08:18:33;23.90;99.90
13148;DHT22;6639;50.956;4.242;2022-10-16T08:21:00;23.80;99.90
13148;DHT22;6639;50.956;4.242;2022-10-16T08:23:28;23.50;99.90
13148;DHT22;6639;50.956;4.242;2022-10-16T08:25:55;23.80;99.90
13148;DHT22;6639;50.956;4.242;2022-10-16T08:28:23;23.60;99.90
13148;DHT22;6639;50.956;4.242;2022-10-16T08:30:51;23.90;99.90
13148;DHT22;6639;50.956;4.242;2022-10-16T08:33:18;23.80;99.90
13148;DHT22;6639;50.956;4.242;2022-10-16T08:35:51;24.00;99.90
13148;DHT22;6639;50.956;4.242;2022-10-16T08:38:19;24.00;99.90
13148;DHT22;6639;50.956;4.242;2022-10-16T08:40:46;24.10;99.90
13148;DHT22;6639;50.956;4.242;2022-10-16T08:43:35;24.10;99.90
13148;DHT22;6639;50.956;4.242;2022-10-16T08:46:20;23.80;99.90
13148;DHT22;6639;50.956;4.242;2022-10-16T08:48:50;23.50;99.90
13148;DHT22;6639;50.956;4.242;2022-10-16T08:51:20;23.80;99.90
13148;DHT22;6639;50.956;4.242;2022-10-16T08:53:52;24.00;99.90
13148;DHT22;6639;50.956;4.242;2022-10-16T08:56:21;24.10;99.90
13148;DHT22;6639;50.956;4.242;2022-10-16T08:58:48;24.20;99.90
13148;DHT22;6639;50.956;4.242;2022-10-16T09:01:18;24.60;99.90
13148;DHT22;6639;50.956;4.242;2022-10-16T09:03:58;24.90;99.90
13148;DHT22;6639;50.956;4.242;2022-10-16T09:06:39;25.10;99.90
13148;DHT22;6639;50.956;4.242;2022-10-16T09:09:22;25.10;99.90
13148;DHT22;6639;50.956;4.242;2022-10-16T09:11:55;25.40;99.90
13148;DHT22;6639;50.956;4.242;2022-10-16T09:14:37;25.80;99.90
13148;DHT22;6639;50.956;4.242;2022-10-16T09:17:19;26.30;99.90
13148;DHT22;6639;50.956;4.242;2022-10-16T09:19:53;26.40;99.90
13148;DHT22;6639;50.956;4.242;2022-10-16T09:22:26;26.40;99.90
13148;DHT22;6639;50.956;4.242;2022-10-16T09:24:55;26.60;99.90
13148;DHT22;6639;50.956;4.242;2022-10-16T09:27:24;26.80;99.60
13148;DHT22;6639;50.956;4.242;2022-10-16T09:29:53;26.90;98.80
13148;DHT22;6639;50.956;4.242;2022-10-16T09:32:22;26.70;99.00
13148;DHT22;6639;50.956;4.242;2022-10-16T09:34:52;26.70;98.70
13148;DHT22;6639;50.956;4.242;2022-10-16T09:37:21;26.60;99.10
13148;DHT22;6639;50.956;4.242;2022-10-16T09:39:50;27.10;98.80
13148;DHT22;6639;50.956;4.242;2022-10-16T09:42:17;27.60;98.60
13148;DHT22;6639;50.956;4.242;2022-10-16T09:44:47;27.90;97.80
13148;DHT22;6639;50.956;4.242;2022-10-16T09:47:18;27.90;97.00
13148;DHT22;6639;50.956;4.242;2022-10-16T09:49:54;28.30;96.90
13148;DHT22;6639;50.956;4.242;2022-10-16T09:52:23;27.60;96.90
13148;DHT22;6639;50.956;4.242;2022-10-16T09:54:51;27.80;97.70
13148;DHT22;6639;50.956;4.242;2022-10-16T09:57:19;28.30;96.90
13148;DHT22;6639;50.956;4.242;2022-10-16T09:59:47;28.40;96.40
13148;DHT22;6639;50.956;4.242;2022-10-16T10:02:15;28.30;96.50
13148;DHT22;6639;50.956;4.242;2022-10-16T10:04:48;28.00;96.50
13148;DHT22;6639;50.956;4.242;2022-10-16T10:07:24;27.60;96.40
13148;DHT22;6639;50.956;4.242;2022-10-16T10:09:52;27.50;96.90
13148;DHT22;6639;50.956;4.242;2022-10-16T10:12:22;27.60;96.40
13148;DHT22;6639;50.956;4.242;2022-10-16T10:14:52;27.50;96.40
13148;DHT22;6639;50.956;4.242;2022-10-16T10:17:21;27.80;96.60
13148;DHT22;6639;50.956;4.242;2022-10-16T10:19:51;28.30;96.30
13148;DHT22;6639;50.956;4.242;2022-10-16T10:22:31;28.40;95.90
13148;DHT22;6639;50.956;4.242;2022-10-16T10:25:19;28.40;95.90
13148;DHT22;6639;50.956;4.242;2022-10-16T10:27:56;28.80;95.70
13148;DHT22;6639;50.956;4.242;2022-10-16T10:30:31;28.60;95.70
13148;DHT22;6639;50.956;4.242;2022-10-16T10:33:13;28.80;94.90
13148;DHT22;6639;50.956;4.242;2022-10-16T10:35:50;29.00;95.60
13148;DHT22;6639;50.956;4.242;2022-10-16T10:38:28;29.40;94.80
13148;DHT22;6639;50.956;4.242;2022-10-16T10:41:05;29.70;94.60
13148;DHT22;6639;50.956;4.242;2022-10-16T10:43:45;29.90;93.60
13148;DHT22;6639;50.956;4.242;2022-10-16T10:46:20;29.80;93.50
13148;DHT22;6639;50.956;4.242;2022-10-16T10:49:10;29.80;93.00
13148;DHT22;6639;50.956;4.242;2022-10-16T10:51:44;28.80;93.90
13148;DHT22;6639;50.956;4.242;2022-10-16T10:54:21;28.60;94.00
13148;DHT22;6639;50.956;4.242;2022-10-16T10:56:56;28.40;94.30
13148;DHT22;6639;50.956;4.242;2022-10-16T10:59:48;28.40;94.80
13148;DHT22;6639;50.956;4.242;2022-10-16T11:02:22;28.60;94.70
13148;DHT22;6639;50.956;4.242;2022-10-16T11:05:24;29.30;94.40
13148;DHT22;6639;50.956;4.242;2022-10-16T11:07:58;29.70;93.80
13148;DHT22;6639;50.956;4.242;2022-10-16T11:10:32;29.30;93.60
13148;DHT22;6639;50.956;4.242;2022-10-16T11:13:08;29.10;93.90
13148;DHT22;6639;50.956;4.242;2022-10-16T11:15:39;29.00;93.70
13148;DHT22;6639;50.956;4.242;2022-10-16T11:18:12;29.50;93.60
13148;DHT22;6639;50.956;4.242;2022-10-16T11:20:44;29.40;93.10
13148;DHT22;6639;50.956;4.242;2022-10-16T11:23:16;29.00;92.70
13148;DHT22;6639;50.956;4.242;2022-10-16T11:25:47;29.10;92.70
13148;DHT22;6639;50.956;4.242;2022-10-16T11:28:16;29.00;93.30
13148;DHT22;6639;50.956;4.242;2022-10-16T11:30:49;29.70;93.10
13148;DHT22;6639;50.956;4.242;2022-10-16T11:33:27;30.00;93.10
13148;DHT22;6639;50.956;4.242;2022-10-16T11:36:02;30.40;92.30
13148;DHT22;6639;50.956;4.242;2022-10-16T11:38:34;30.30;91.90
13148;DHT22;6639;50.956;4.242;2022-10-16T11:41:15;29.70;91.30
13148;DHT22;6639;50.956;4.242;2022-10-16T11:43:50;29.00;91.70
13148;DHT22;6639;50.956;4.242;2022-10-16T11:46:21;29.10;92.00
13148;DHT22;6639;50.956;4.242;2022-10-16T11:48:54;29.20;92.20
13148;DHT22;6639;50.956;4.242;2022-10-16T11:51:30;29.30;92.40
13148;DHT22;6639;50.956;4.242;2022-10-16T11:54:04;29.60;92.60
13148;DHT22;6639;50.956;4.242;2022-10-16T11:56:37;29.60;92.10
13148;DHT22;6639;50.956;4.242;2022-10-16T11:59:07;29.90;91.90
13148;DHT22;6639;50.956;4.242;2022-10-16T12:01:42;29.90;91.00
13148;DHT22;6639;50.956;4.242;2022-10-16T12:04:17;29.80;90.90
13148;DHT22;6639;50.956;4.242;2022-10-16T12:06:49;29.70;90.70
13148;DHT22;6639;50.956;4.242;2022-10-16T12:09:22;29.80;90.90
13148;DHT22;6639;50.956;4.242;2022-10-16T12:11:50;29.60;90.90
13148;DHT22;6639;50.956;4.242;2022-10-16T12:14:36;29.70;91.00
13148;DHT22;6639;50.956;4.242;2022-10-16T12:17:04;29.50;91.10
13148;DHT22;6639;50.956;4.242;2022-10-16T12:19:58;29.70;91.10
13148;DHT22;6639;50.956;4.242;2022-10-16T12:22:27;29.80;90.60
13148;DHT22;6639;50.956;4.242;2022-10-16T12:24:55;29.90;91.30
13148;DHT22;6639;50.956;4.242;2022-10-16T12:27:27;29.70;91.30
13148;DHT22;6639;50.956;4.242;2022-10-16T12:29:56;29.50;91.50
13148;DHT22;6639;50.956;4.242;2022-10-16T12:32:28;29.40;91.30
13148;DHT22;6639;50.956;4.242;2022-10-16T12:34:56;29.40;91.40
13148;DHT22;6639;50.956;4.242;2022-10-16T12:37:25;29.30;91.40
13148;DHT22;6639;50.956;4.242;2022-10-16T12:39:54;29.40;91.30
13148;DHT22;6639;50.956;4.242;2022-10-16T12:42:31;29.20;90.40
13148;DHT22;6639;50.956;4.242;2022-10-16T12:44:59;28.80;91.30
13148;DHT22;6639;50.956;4.242;2022-10-16T12:47:38;28.70;91.60
13148;DHT22;6639;50.956;4.242;2022-10-16T12:50:23;28.30;91.50
13148;DHT22;6639;50.956;4.242;2022-10-16T12:52:51;28.20;92.10
13148;DHT22;6639;50.956;4.242;2022-10-16T12:55:20;28.30;92.10
13148;DHT22;6639;50.956;4.242;2022-10-16T12:58:09;28.20;92.40
13148;DHT22;6639;50.956;4.242;2022-10-16T13:00:44;28.00;92.30
13148;DHT22;6639;50.956;4.242;2022-10-16T13:06:19;27.70;93.50
13148;DHT22;6639;50.956;4.242;2022-10-16T13:09:07;27.20;93.10
13148;DHT22;6639;50.956;4.242;2022-10-16T13:11:48;26.80;93.30
13148;DHT22;6639;50.956;4.242;2022-10-16T13:14:47;26.90;94.20
13148;DHT22;6639;50.956;4.242;2022-10-16T13:17:24;27.10;94.20
13148;DHT22;6639;50.956;4.242;2022-10-16T13:20:00;27.40;94.20
13148;DHT22;6639;50.956;4.242;2022-10-16T13:22:33;27.50;94.00
13148;DHT22;6639;50.956;4.242;2022-10-16T13:25:13;27.30;94.00
13148;DHT22;6639;50.956;4.242;2022-10-16T13:27:49;26.70;94.80
13148;DHT22;6639;50.956;4.242;2022-10-16T13:30:20;26.20;95.00
13148;DHT22;6639;50.956;4.242;2022-10-16T13:32:49;26.30;95.10
13148;DHT22;6639;50.956;4.242;2022-10-16T13:35:22;26.50;95.20
13148;DHT22;6639;50.956;4.242;2022-10-16T13:37:49;26.40;95.10
13148;DHT22;6639;50.956;4.242;2022-10-16T13:40:21;26.60;95.20
13148;DHT22;6639;50.956;4.242;2022-10-16T13:42:49;26.80;94.60
13148;DHT22;6639;50.956;4.242;2022-10-16T13:45:20;26.90;94.40
13148;DHT22;6639;50.956;4.242;2022-10-16T13:47:47;27.00;94.50
13148;DHT22;6639;50.956;4.242;2022-10-16T13:50:16;27.10;94.40
13148;DHT22;6639;50.956;4.242;2022-10-16T13:52:43;27.20;93.90
13148;DHT22;6639;50.956;4.242;2022-10-16T13:55:11;27.20;93.40
13148;DHT22;6639;50.956;4.242;2022-10-16T13:57:39;27.20;93.20
13148;DHT22;6639;50.956;4.242;2022-10-16T14:00:20;27.00;93.50
13148;DHT22;6639;50.956;4.242;2022-10-16T14:02:51;27.20;93.10
13148;DHT22;6639;50.956;4.242;2022-10-16T14:05:19;27.00;93.30
13148;DHT22;6639;50.956;4.242;2022-10-16T14:07:49;27.40;93.30
13148;DHT22;6639;50.956;4.242;2022-10-16T14:10:22;27.70;93.00
13148;DHT22;6639;50.956;4.242;2022-10-16T14:12:55;27.50;93.00
13148;DHT22;6639;50.956;4.242;2022-10-16T14:15:24;27.40;93.30
13148;DHT22;6639;50.956;4.242;2022-10-16T14:17:52;27.70;93.20
13148;DHT22;6639;50.956;4.242;2022-10-16T14:20:22;27.70;93.20
13148;DHT22;6639;50.956;4.242;2022-10-16T14:22:58;27.80;93.40
13148;DHT22;6639;50.956;4.242;2022-10-16T14:25:27;28.00;92.80
13148;DHT22;6639;50.956;4.242;2022-10-16T14:28:04;27.80;93.00
13148;DHT22;6639;50.956;4.242;2022-10-16T14:30:51;27.70;93.30
13148;DHT22;6639;50.956;4.242;2022-10-16T14:33:23;28.10;93.20
13148;DHT22;6639;50.956;4.242;2022-10-16T14:36:01;28.20;92.80
13148;DHT22;6639;50.956;4.242;2022-10-16T14:38:29;28.20;92.50
13148;DHT22;6639;50.956;4.242;2022-10-16T14:40:58;27.80;92.70
13148;DHT22;6639;50.956;4.242;2022-10-16T14:43:31;27.90;93.00
13148;DHT22;6639;50.956;4.242;2022-10-16T14:46:01;28.10;93.10
13148;DHT22;6639;50.956;4.242;2022-10-16T14:48:29;28.30;93.10
13148;DHT22;6639;50.956;4.242;2022-10-16T14:50:56;28.40;92.80
13148;DHT22;6639;50.956;4.242;2022-10-16T14:53:23;28.50;93.20
13148;DHT22;6639;50.956;4.242;2022-10-16T14:55:50;28.50;93.00
13148;DHT22;6639;50.956;4.242;2022-10-16T14:58:19;28.50;93.00
13148;DHT22;6639;50.956;4.242;2022-10-16T15:00:47;28.30;93.20
13148;DHT22;6639;50.956;4.242;2022-10-16T15:03:15;28.30;93.80
13148;DHT22;6639;50.956;4.242;2022-10-16T15:05:42;27.80;94.60
13148;DHT22;6639;50.956;4.242;2022-10-16T15:08:09;27.80;94.40
13148;DHT22;6639;50.956;4.242;2022-10-16T15:10:40;28.10;94.20
13148;DHT22;6639;50.956;4.242;2022-10-16T15:13:11;28.30;93.70
13148;DHT22;6639;50.956;4.242;2022-10-16T15:15:42;28.40;93.50
13148;DHT22;6639;50.956;4.242;2022-10-16T15:18:09;28.40;93.30
13148;DHT22;6639;50.956;4.242;2022-10-16T15:20:39;28.20;93.00
13148;DHT22;6639;50.956;4.242;2022-10-16T15:23:10;28.20;93.20
13148;DHT22;6639;50.956;4.242;2022-10-16T15:25:42;28.20;93.80
13148;DHT22;6639;50.956;4.242;2022-10-16T15:28:10;28.30;94.00
13148;DHT22;6639;50.956;4.242;2022-10-16T15:30:38;28.30;94.10
13148;DHT22;6639;50.956;4.242;2022-10-16T15:33:11;28.40;93.90
13148;DHT22;6639;50.956;4.242;2022-10-16T15:35:40;28.40;93.80
13148;DHT22;6639;50.956;4.242;2022-10-16T15:38:11;28.40;93.90
13148;DHT22;6639;50.956;4.242;2022-10-16T15:40:39;28.30;94.30
13148;DHT22;6639;50.956;4.242;2022-10-16T15:43:06;27.80;94.00
13148;DHT22;6639;50.956;4.242;2022-10-16T15:45:34;27.90;94.40
13148;DHT22;6639;50.956;4.242;2022-10-16T15:48:01;28.00;94.40
13148;DHT22;6639;50.956;4.242;2022-10-16T15:50:28;27.90;94.40
13148;DHT22;6639;50.956;4.242;2022-10-16T15:52:57;28.00;94.40
13148;DHT22;6639;50.956;4.242;2022-10-16T15:55:24;28.00;94.20
13148;DHT22;6639;50.956;4.242;2022-10-16T15:57:51;27.40;94.00
13148;DHT22;6639;50.956;4.242;2022-10-16T16:00:19;27.60;94.30
13148;DHT22;6639;50.956;4.242;2022-10-16T16:02:50;27.70;94.30
13148;DHT22;6639;50.956;4.242;2022-10-16T16:05:18;27.20;94.70
13148;DHT22;6639;50.956;4.242;2022-10-16T16:07:46;27.40;94.80